Airport Name : Westerland Sylt

Other Name : Westerland Sylt

ICAO : EDXW

IATA : GWT

FAA :

Latitude : 54.91325

Longitude : 8.340472

Country : Germany

Local Date and Time : 17 Jun 2024 03:35

 

TAF (Terminal Aerodrome Forecast)

TAF EDXW 161700Z 1618/1621 19015KT 9999 SCT014 TEMPO 1618/1621 SHRA BKN013CB PROB30 TEMPO 1618/1621 3000 TSRA BECMG 1619/1621 19010KT

 

METAR (METeorological Aerodrome Report)

EDXW 170120Z AUTO 21008KT 9999 // BKN012/// 13/12 Q1007

EDXW 170050Z AUTO 21009KT 9999 // FEW011/// 13/12 Q1007

EDXW 170020Z AUTO 21008KT 9999 // FEW012/// 13/12 Q1007

EDXW 162350Z AUTO 21009KT 9999 // FEW015/// 13/12 Q1007

EDXW 162320Z AUTO 21009KT 9999 // NCD 13/12 Q1007

EDXW 162250Z AUTO 21009KT 9999 // NCD 13/12 Q1007

EDXW 162220Z AUTO 21010KT 9999 // NCD 13/12 Q1007

EDXW 162150Z AUTO 21009KT 9999 // FEW024/// SCT044/// 14/12 Q1007